createdAt,value
2019-05-28T00:00:56.482Z,10.70
2019-05-28T00:03:28.290Z,10.60
2019-05-28T00:06:17.235Z,10.60
2019-05-28T00:08:47.792Z,10.60
2019-05-28T00:11:18.390Z,10.60
2019-05-28T00:13:48.989Z,10.60
2019-05-28T00:16:19.691Z,10.60
2019-05-28T00:18:50.226Z,10.60
2019-05-28T00:21:20.898Z,10.60
2019-05-28T00:23:53.346Z,10.50
2019-05-28T00:26:24.427Z,10.40
2019-05-28T00:28:55.057Z,10.40
2019-05-28T00:31:25.938Z,10.50
2019-05-28T00:34:02.440Z,10.40
2019-05-28T00:36:35.965Z,10.40
2019-05-28T00:39:08.700Z,10.40
2019-05-28T00:41:39.800Z,10.50
2019-05-28T00:44:10.791Z,10.40
2019-05-28T00:46:41.818Z,10.40
2019-05-28T00:49:12.418Z,10.20
2019-05-28T00:51:44.826Z,10.20
2019-05-28T00:54:15.682Z,10.10
2019-05-28T00:56:47.017Z,10.10
2019-05-28T00:59:21.055Z,10.10
2019-05-28T01:01:53.992Z,10.00
2019-05-28T01:04:24.465Z,9.90
2019-05-28T01:07:00.909Z,9.80
2019-05-28T01:09:31.653Z,9.80
2019-05-28T01:12:02.653Z,9.70
2019-05-28T01:14:33.433Z,9.60
2019-05-28T01:17:04.120Z,9.60
2019-05-28T01:19:36.192Z,9.60
2019-05-28T01:22:06.823Z,9.50
2019-05-28T01:24:37.362Z,9.40
2019-05-28T01:27:08.416Z,9.30
2019-05-28T01:29:38.854Z,9.20
2019-05-28T01:32:09.559Z,9.10
2019-05-28T01:34:40.302Z,9.10
2019-05-28T01:37:11.114Z,9.20
2019-05-28T01:39:42.236Z,9.30
2019-05-28T01:42:16.149Z,9.40
2019-05-28T01:44:46.693Z,9.50
2019-05-28T01:47:17.538Z,9.60
2019-05-28T01:49:48.088Z,9.70
2019-05-28T01:52:18.641Z,9.80
2019-05-28T01:54:49.230Z,9.80
2019-05-28T01:57:20.612Z,9.90
2019-05-28T01:59:51.135Z,9.90
2019-05-28T02:08:56.791Z,10.00
2019-05-28T02:19:19.746Z,10.00
2019-05-28T02:29:45.380Z,10.00
2019-05-28T02:36:44.571Z,10.00
2019-05-28T02:43:32.649Z,10.00
2019-05-28T02:46:17.234Z,10.00
2019-05-28T02:48:53.697Z,10.00
2019-05-28T03:03:29.423Z,9.60
2019-05-28T03:06:25.035Z,9.50
2019-05-28T03:13:52.873Z,9.20
2019-05-28T03:17:05.012Z,9.20
2019-05-28T03:19:48.375Z,9.10
2019-05-28T03:31:08.016Z,9.30
2019-05-28T03:37:45.220Z,9.50
2019-05-28T03:40:32.534Z,9.60
2019-05-28T04:04:34.469Z,10.20
2019-05-28T04:07:05.007Z,10.20
2019-05-28T04:09:35.844Z,10.30
2019-05-28T04:12:06.488Z,10.30
2019-05-28T04:14:37.172Z,10.40
2019-05-28T04:17:07.763Z,10.30
2019-05-28T04:40:50.078Z,10.40
2019-05-28T04:53:55.799Z,10.70
2019-05-28T04:56:26.391Z,10.70
2019-05-28T04:58:57.426Z,10.70
2019-05-28T05:01:27.924Z,10.70
2019-05-28T05:03:58.539Z,10.60
2019-05-28T05:06:29.146Z,10.70
2019-05-28T05:09:02.999Z,10.60
2019-05-28T05:11:33.911Z,10.70
2019-05-28T05:14:05.315Z,10.80
2019-05-28T05:16:36.979Z,10.80
2019-05-28T05:19:09.017Z,10.80
2019-05-28T05:21:44.554Z,10.80
2019-05-28T05:24:18.947Z,10.70
2019-05-28T05:26:53.202Z,11.00
2019-05-28T05:29:27.892Z,11.20
2019-05-28T05:32:04.871Z,11.20
2019-05-28T05:34:40.263Z,11.20
2019-05-28T05:37:16.988Z,11.50
2019-05-28T05:39:54.433Z,11.50
2019-05-28T05:42:25.719Z,11.50
2019-05-28T05:45:07.815Z,11.60
2019-05-28T05:47:42.247Z,11.40
2019-05-28T05:50:14.846Z,11.50
2019-05-28T05:52:48.886Z,11.50
2019-05-28T05:55:26.077Z,11.30
2019-05-28T05:58:02.527Z,11.30
2019-05-28T06:00:42.177Z,11.50
2019-05-28T06:03:56.856Z,11.80
2019-05-28T06:06:19.642Z,12.00
2019-05-28T06:08:50.493Z,11.90
2019-05-28T06:11:22.076Z,11.70
2019-05-28T06:13:52.912Z,11.50
2019-05-28T06:16:27.585Z,11.70
2019-05-28T06:18:58.252Z,11.90
2019-05-28T06:21:32.730Z,12.10
2019-05-28T06:24:03.637Z,12.30
2019-05-28T06:29:14.663Z,12.00
2019-05-28T06:31:45.848Z,11.80
2019-05-28T06:34:17.016Z,11.60
2019-05-28T06:36:50.385Z,11.40
2019-05-28T06:39:21.724Z,11.20
2019-05-28T06:41:52.669Z,11.20
2019-05-28T06:44:23.837Z,11.00
2019-05-28T06:46:54.806Z,11.10
2019-05-28T06:49:25.600Z,11.50
2019-05-28T06:51:56.908Z,11.50
2019-05-28T06:54:28.575Z,11.40
2019-05-28T06:56:59.694Z,11.30
2019-05-28T06:59:31.786Z,11.50
2019-05-28T07:02:02.598Z,11.50
2019-05-28T07:04:34.000Z,11.50
2019-05-28T07:07:05.040Z,11.50
2019-05-28T07:09:36.170Z,11.50
2019-05-28T07:12:07.260Z,11.40
2019-05-28T07:14:38.376Z,11.40
2019-05-28T07:17:12.383Z,11.30
2019-05-28T07:19:43.240Z,11.40
2019-05-28T07:22:14.241Z,11.40
2019-05-28T07:24:45.330Z,11.20
2019-05-28T07:27:16.712Z,11.30
2019-05-28T07:29:50.663Z,11.40
2019-05-28T07:32:21.929Z,11.50
2019-05-28T07:34:56.241Z,11.30
2019-05-28T07:37:27.347Z,11.50
2019-05-28T07:40:00.014Z,11.70
2019-05-28T07:42:33.210Z,11.90
2019-05-28T07:45:04.580Z,11.70
2019-05-28T07:47:35.491Z,11.50
2019-05-28T07:50:06.661Z,11.50
2019-05-28T07:52:37.724Z,11.30
2019-05-28T07:55:08.642Z,11.50
2019-05-28T07:57:39.718Z,11.60
2019-05-28T08:00:12.397Z,11.70
2019-05-28T08:02:43.381Z,11.70
2019-05-28T08:05:18.007Z,11.60
2019-05-28T08:07:51.726Z,11.40
2019-05-28T08:10:22.870Z,11.30
2019-05-28T08:12:54.100Z,11.60
2019-05-28T08:15:25.042Z,12.00
2019-05-28T08:17:59.778Z,12.50
2019-05-28T08:20:32.946Z,12.90
2019-05-28T08:23:04.945Z,13.10
2019-05-28T08:25:46.994Z,13.50
2019-05-28T08:28:19.366Z,14.20
2019-05-28T08:30:42.314Z,14.40
2019-05-28T08:33:12.780Z,14.40
2019-05-28T08:35:43.547Z,14.20
2019-05-28T08:38:14.389Z,14.20
2019-05-28T08:40:45.079Z,14.50
2019-05-28T08:43:15.920Z,14.20
2019-05-28T08:45:46.523Z,14.40
2019-05-28T08:50:47.711Z,14.10
2019-05-28T08:53:18.186Z,13.60
2019-05-28T08:55:51.340Z,13.40
2019-05-28T08:58:21.976Z,13.10
2019-05-28T09:00:52.779Z,13.30
2019-05-28T09:03:23.702Z,13.80
2019-05-28T09:05:55.131Z,14.10
2019-05-28T09:08:38.559Z,14.50
2019-05-28T09:10:58.223Z,14.20
2019-05-28T09:13:29.105Z,14.20
2019-05-28T09:15:59.808Z,14.40
2019-05-28T09:18:31.821Z,14.80
2019-05-28T09:21:02.667Z,15.10
2019-05-28T09:23:33.297Z,15.30
2019-05-28T09:26:04.292Z,15.20
2019-05-28T09:28:35.593Z,15.30
2019-05-28T09:31:06.228Z,15.40
2019-05-28T09:33:37.111Z,15.10
2019-05-28T09:36:09.319Z,14.60
2019-05-28T09:38:40.365Z,14.40
2019-05-28T09:41:11.049Z,14.40
2019-05-28T09:43:41.841Z,14.90
2019-05-28T09:46:12.785Z,14.70
2019-05-28T09:48:43.386Z,14.50
2019-05-28T09:51:14.476Z,14.50
2019-05-28T09:53:45.352Z,14.50
2019-05-28T09:56:17.306Z,14.70
2019-05-28T09:58:47.887Z,14.70
2019-05-28T10:01:18.737Z,14.30
2019-05-28T10:03:49.344Z,14.20
2019-05-28T10:06:20.111Z,14.30
2019-05-28T10:08:50.685Z,14.40
2019-05-28T10:13:51.317Z,13.80
2019-05-28T10:16:21.918Z,14.00
2019-05-28T10:18:52.745Z,14.10
2019-05-28T10:21:23.472Z,13.80
2019-05-28T10:23:54.418Z,13.90
2019-05-28T10:26:24.826Z,13.80
2019-05-28T10:28:55.680Z,13.80
2019-05-28T10:31:26.263Z,14.10
2019-05-28T10:33:56.974Z,14.20
2019-05-28T10:36:35.868Z,14.70
2019-05-28T10:39:01.121Z,14.70
2019-05-28T10:41:32.176Z,15.00
2019-05-28T10:44:03.275Z,14.90
2019-05-28T10:46:33.770Z,15.00
2019-05-28T10:49:03.658Z,14.80
2019-05-28T10:51:34.379Z,15.20
2019-05-28T10:54:07.241Z,15.10
2019-05-28T10:56:38.219Z,15.20
2019-05-28T10:59:09.784Z,14.90
2019-05-28T11:01:41.498Z,14.90
2019-05-28T11:04:12.436Z,14.80
2019-05-28T11:06:51.822Z,15.00
2019-05-28T11:09:16.284Z,15.20
2019-05-28T11:11:48.794Z,14.50
2019-05-28T11:14:19.622Z,14.50
2019-05-28T11:16:50.635Z,15.20
2019-05-28T11:19:22.474Z,15.40
2019-05-28T11:21:53.278Z,15.40
2019-05-28T11:24:23.922Z,14.70
2019-05-28T11:26:54.830Z,15.00
2019-05-28T11:29:25.858Z,15.40
2019-05-28T11:31:56.745Z,15.10
2019-05-28T11:34:27.602Z,15.30
2019-05-28T11:37:09.691Z,15.20
2019-05-28T11:39:34.028Z,15.30
2019-05-28T11:42:05.149Z,15.20
2019-05-28T11:44:36.069Z,15.60
2019-05-28T11:47:06.854Z,15.30
2019-05-28T11:49:40.719Z,15.40
2019-05-28T11:52:31.591Z,15.30
2019-05-28T11:55:16.875Z,15.20
2019-05-28T11:57:47.870Z,15.50
2019-05-28T12:00:19.812Z,15.80
2019-05-28T12:02:50.941Z,16.20
2019-05-28T12:05:22.246Z,15.10
2019-05-28T12:07:53.200Z,15.70
2019-05-28T12:10:24.199Z,15.80
2019-05-28T12:12:55.221Z,15.40
2019-05-28T12:15:26.730Z,14.80
2019-05-28T12:17:57.380Z,14.90
2019-05-28T12:20:28.831Z,15.20
2019-05-28T12:23:11.666Z,15.40
2019-05-28T12:25:38.769Z,16.00
2019-05-28T12:28:36.533Z,16.20
2019-05-28T12:30:51.747Z,17.90
2019-05-28T12:33:22.729Z,18.30
2019-05-28T12:35:54.774Z,20.40
2019-05-28T12:38:28.541Z,20.50
2019-05-28T12:41:01.057Z,21.90
2019-05-28T12:43:31.795Z,21.40
2019-05-28T12:46:02.559Z,21.40
2019-05-28T12:48:33.154Z,22.10
2019-05-28T12:51:03.783Z,21.10
2019-05-28T12:53:49.294Z,21.90
2019-05-28T12:56:06.890Z,23.50
2019-05-28T12:58:43.028Z,21.20
2019-05-28T13:01:11.300Z,24.70
2019-05-28T13:03:41.847Z,25.30
2019-05-28T13:06:12.521Z,23.30
2019-05-28T13:08:43.329Z,25.40
2019-05-28T13:11:15.973Z,25.50
2019-05-28T13:13:48.977Z,25.00
2019-05-28T13:28:24.087Z,26.40
2019-05-28T13:30:54.731Z,28.40
2019-05-28T13:33:26.129Z,28.20
2019-05-28T13:35:56.729Z,26.30
2019-05-28T13:38:27.975Z,27.30
2019-05-28T13:41:01.957Z,26.60
2019-05-28T13:43:34.834Z,24.00
2019-05-28T13:46:06.385Z,22.30
2019-05-28T13:48:37.225Z,22.00
2019-05-28T13:51:08.250Z,24.40
2019-05-28T13:53:41.966Z,24.30
2019-05-28T13:56:15.882Z,22.60
2019-05-28T13:58:49.549Z,23.30
2019-05-28T14:01:20.377Z,22.60
2019-05-28T14:03:51.873Z,26.20
2019-05-28T14:06:22.504Z,27.00
2019-05-28T14:08:53.773Z,28.50
2019-05-28T14:11:26.305Z,25.60
2019-05-28T14:13:59.877Z,27.80
2019-05-28T14:16:30.350Z,26.90
2019-05-28T14:19:06.425Z,24.20
2019-05-28T14:21:36.973Z,25.20
2019-05-28T14:24:07.778Z,25.60
2019-05-28T14:26:38.238Z,26.20
2019-05-28T14:29:09.583Z,24.50
2019-05-28T14:31:41.299Z,27.10
2019-05-28T14:34:25.678Z,28.40
2019-05-28T14:36:56.287Z,27.80
2019-05-28T14:39:40.075Z,29.10
2019-05-28T14:41:59.101Z,28.90
2019-05-28T14:44:31.012Z,27.20
2019-05-28T14:47:01.688Z,27.30
2019-05-28T14:49:32.645Z,26.00
2019-05-28T14:52:03.173Z,26.10
2019-05-28T14:54:34.930Z,27.60
2019-05-28T14:57:13.466Z,28.10
2019-05-28T14:59:44.044Z,25.80
2019-05-28T15:02:14.609Z,28.00
2019-05-28T15:04:45.567Z,27.90
2019-05-28T15:07:16.263Z,28.40
2019-05-28T15:09:46.756Z,30.70
2019-05-28T15:12:19.384Z,28.80
2019-05-28T15:14:50.749Z,29.10
2019-05-28T15:17:21.157Z,28.70
2019-05-28T15:19:52.250Z,28.00
2019-05-28T15:22:24.857Z,27.90
2019-05-28T15:24:55.710Z,29.60
2019-05-28T15:27:26.255Z,29.10
2019-05-28T15:29:59.883Z,30.40
2019-05-28T15:32:30.502Z,27.70
2019-05-28T15:35:01.254Z,24.20
2019-05-28T15:37:34.751Z,23.80
2019-05-28T15:40:07.693Z,21.90
2019-05-28T15:42:38.506Z,20.60
2019-05-28T15:45:09.973Z,21.80
2019-05-28T15:47:44.455Z,21.30
2019-05-28T15:50:14.873Z,19.60
2019-05-28T15:52:48.165Z,18.70
2019-05-28T15:55:23.933Z,17.50
2019-05-28T15:57:55.309Z,16.80
2019-05-28T16:00:26.625Z,16.00
2019-05-28T16:02:57.636Z,15.60
2019-05-28T16:05:28.400Z,15.40
2019-05-28T16:07:59.029Z,14.90
2019-05-28T16:10:30.091Z,14.80
2019-05-28T16:13:00.752Z,14.00
2019-05-28T16:15:31.443Z,14.50
2019-05-28T16:18:01.855Z,14.40
2019-05-28T16:20:32.709Z,14.50
2019-05-28T16:23:03.340Z,14.00
2019-05-28T16:25:33.970Z,13.80
2019-05-28T16:28:04.502Z,13.90
2019-05-28T16:30:35.337Z,14.00
2019-05-28T16:33:06.233Z,13.90
2019-05-28T16:35:37.171Z,13.70
2019-05-28T16:38:07.795Z,13.60
2019-05-28T16:40:41.437Z,13.20
2019-05-28T16:43:12.106Z,13.30
2019-05-28T16:45:43.857Z,13.00
2019-05-28T16:48:14.690Z,13.20
2019-05-28T16:50:46.757Z,13.10
2019-05-28T16:53:18.463Z,13.10
2019-05-28T16:55:49.303Z,13.30
2019-05-28T16:58:21.344Z,13.20
2019-05-28T17:00:51.983Z,12.80
2019-05-28T17:03:23.818Z,12.80
2019-05-28T17:05:54.585Z,12.60
2019-05-28T17:08:25.189Z,12.40
2019-05-28T17:10:56.068Z,12.50
2019-05-28T17:13:28.998Z,12.70
2019-05-28T17:15:59.920Z,12.50
2019-05-28T17:18:30.702Z,12.40
2019-05-28T17:21:04.809Z,12.40
2019-05-28T17:23:35.343Z,12.50
2019-05-28T17:26:06.333Z,12.30
2019-05-28T17:28:36.726Z,12.40
2019-05-28T17:31:07.397Z,12.20
2019-05-28T17:33:38.157Z,12.10
2019-05-28T17:36:09.330Z,11.90
2019-05-28T17:38:40.214Z,12.00
2019-05-28T17:41:11.295Z,12.00
2019-05-28T17:43:42.153Z,11.90
2019-05-28T17:46:13.832Z,12.00
2019-05-28T17:48:44.864Z,12.10
2019-05-28T17:51:15.885Z,12.00
2019-05-28T17:53:47.361Z,12.00
2019-05-28T17:56:18.086Z,11.90
2019-05-28T17:58:48.756Z,12.00
2019-05-28T18:01:19.222Z,11.90
2019-05-28T18:03:49.956Z,11.70
2019-05-28T18:06:20.961Z,11.60
2019-05-28T18:08:51.753Z,11.40
2019-05-28T18:11:23.113Z,11.30
2019-05-28T18:13:53.825Z,11.10
2019-05-28T18:16:24.675Z,11.00
2019-05-28T18:18:55.291Z,11.10
2019-05-28T18:21:25.920Z,10.90
2019-05-28T18:23:56.504Z,10.80
2019-05-28T18:26:27.716Z,10.70
2019-05-28T18:28:58.274Z,10.50
2019-05-28T18:31:28.889Z,10.40
2019-05-28T18:33:59.541Z,10.40
2019-05-28T18:36:30.235Z,10.30
2019-05-28T18:39:00.993Z,10.40
2019-05-28T18:41:33.283Z,10.40
2019-05-28T18:44:05.355Z,10.40
2019-05-28T18:46:36.994Z,10.40
2019-05-28T18:49:08.774Z,10.40
2019-05-28T18:51:39.482Z,10.30
2019-05-28T18:54:09.901Z,10.50
2019-05-28T18:56:41.889Z,10.50
2019-05-28T18:59:13.787Z,10.40
2019-05-28T19:01:44.557Z,10.30
2019-05-28T19:04:15.029Z,10.30
2019-05-28T19:06:45.690Z,10.20
2019-05-28T19:09:16.413Z,10.10
2019-05-28T19:11:47.579Z,10.00
2019-05-28T19:14:18.140Z,9.90
2019-05-28T19:16:49.073Z,9.80
2019-05-28T19:19:19.826Z,9.70
2019-05-28T19:24:47.511Z,9.60
2019-05-28T19:27:19.095Z,9.60
2019-05-28T19:29:50.748Z,9.50
2019-05-28T19:32:21.363Z,9.50
2019-05-28T19:37:21.953Z,9.50
2019-05-28T19:39:52.521Z,9.50
2019-05-28T19:42:23.113Z,9.60
2019-05-28T19:44:53.694Z,9.60
2019-05-28T19:47:24.425Z,9.40
2019-05-28T19:49:55.146Z,9.30
2019-05-28T19:52:25.935Z,9.30
2019-05-28T19:54:57.523Z,9.30
2019-05-28T19:57:28.315Z,9.40
2019-05-28T19:59:58.911Z,9.50
2019-05-28T20:02:29.750Z,9.50
2019-05-28T20:05:53.433Z,9.50
2019-05-28T20:08:29.565Z,9.40
2019-05-28T20:11:00.310Z,9.30
2019-05-28T20:13:31.819Z,9.40
2019-05-28T20:16:02.571Z,9.40
2019-05-28T20:18:33.785Z,9.40
2019-05-28T20:21:04.594Z,9.40
2019-05-28T20:23:35.720Z,9.40
2019-05-28T20:26:10.165Z,9.30
2019-05-28T20:28:40.947Z,9.10
2019-05-28T20:31:11.786Z,9.00
2019-05-28T20:33:43.499Z,9.00
2019-05-28T20:36:14.722Z,8.90
2019-05-28T20:38:47.247Z,8.90
2019-05-28T20:41:19.980Z,8.80
2019-05-28T20:43:51.363Z,8.80
2019-05-28T20:46:22.245Z,8.70
2019-05-28T20:48:53.159Z,8.70
2019-05-28T20:51:23.895Z,8.70
2019-05-28T20:53:54.611Z,8.70
2019-05-28T20:56:25.100Z,8.70
2019-05-28T20:58:55.984Z,8.60
2019-05-28T21:01:28.333Z,8.70
2019-05-28T21:03:58.928Z,8.70
2019-05-28T21:06:29.737Z,8.60
2019-05-28T21:09:00.296Z,8.60
2019-05-28T21:11:31.100Z,8.50
2019-05-28T21:14:01.760Z,8.50
2019-05-28T21:16:32.366Z,8.50
2019-05-28T21:19:03.272Z,8.50
2019-05-28T21:21:34.041Z,8.40
2019-05-28T21:24:04.783Z,8.40
2019-05-28T21:26:35.356Z,8.30
2019-05-28T21:29:06.291Z,8.30
2019-05-28T21:31:36.803Z,8.20
2019-05-28T21:34:07.676Z,8.20
2019-05-28T21:36:38.096Z,8.20
2019-05-28T21:39:08.866Z,8.20
2019-05-28T21:41:39.760Z,8.30
2019-05-28T21:44:11.151Z,8.20
2019-05-28T21:46:42.035Z,8.20
2019-05-28T21:49:13.315Z,8.10
2019-05-28T21:51:43.965Z,8.10
2019-05-28T21:54:15.157Z,8.10
2019-05-28T21:56:45.600Z,8.10
2019-05-28T21:59:16.436Z,8.10
2019-05-28T22:01:46.974Z,8.10
2019-05-28T22:04:17.838Z,8.20
2019-05-28T22:06:48.310Z,8.30
2019-05-28T22:09:19.113Z,8.30
2019-05-28T22:11:49.782Z,8.30
2019-05-28T22:14:20.660Z,8.20
2019-05-28T22:16:51.819Z,8.20
2019-05-28T22:19:22.532Z,8.20
2019-05-28T22:21:52.994Z,8.10
2019-05-28T22:24:23.980Z,8.10
2019-05-28T22:27:00.241Z,8.10
2019-05-28T22:29:31.111Z,8.10
2019-05-28T22:32:02.814Z,8.20
2019-05-28T22:34:33.920Z,8.20
2019-05-28T22:37:04.855Z,8.20
2019-05-28T22:42:04.270Z,8.20
2019-05-28T22:44:34.859Z,8.20
2019-05-28T22:47:05.507Z,8.20
2019-05-28T22:49:36.939Z,8.20
2019-05-28T22:52:08.116Z,8.20
2019-05-28T22:54:39.232Z,8.20
2019-05-28T22:57:09.971Z,8.20
2019-05-28T22:59:40.849Z,8.20
2019-05-28T23:02:13.587Z,8.20
2019-05-28T23:04:43.967Z,8.20
2019-05-28T23:07:14.895Z,8.30
2019-05-28T23:09:45.965Z,8.30
2019-05-28T23:12:17.363Z,8.30
2019-05-28T23:14:48.028Z,8.30
2019-05-28T23:17:20.366Z,8.40
2019-05-28T23:19:51.032Z,8.50
2019-05-28T23:22:21.651Z,8.60
2019-05-28T23:24:52.316Z,8.60
2019-05-28T23:27:25.364Z,8.50
2019-05-28T23:29:55.788Z,8.50
2019-05-28T23:32:26.530Z,8.60
2019-05-28T23:34:56.994Z,8.70
2019-05-28T23:37:27.906Z,8.70
2019-05-28T23:39:58.653Z,8.70
2019-05-28T23:42:29.238Z,8.70
2019-05-28T23:44:59.954Z,8.70
2019-05-28T23:47:30.753Z,8.70
2019-05-28T23:50:02.268Z,8.60
2019-05-28T23:52:33.308Z,8.60
2019-05-28T23:55:05.643Z,8.60
2019-05-28T23:57:36.569Z,8.50
